TNCE

Details ICAO TNCE (EUX)
Name St Eustatius/F D Roosevelt
Region Caribbean Netherlands, Aruba, Curaçao, Sint Maarten
Timezone America/Curacao (UTC-4.0)
Plans Departing 10
Arriving 23
Stats Elevation 129 ft / 39 m (AMSL)
Location 17.496492° -62.979439°
Runways 1
Magnetic Variation 14.374° W
Sunrise 2018-05-23 09:39:08 UTC / 2018-05-23 05:39:08 Local
Sunset 2018-05-23 22:41:05 UTC / 2018-05-23 18:41:05 Local
Advertisement - Login to hide

Runways

ID Width Length Bearing (true) Bearing (mag) Surface Threshold Offset Overrun Length
06 98 ft / 30 m 4,302 ft / 1,311 m 49.97° 64.34° Asphalt 0 ft / 0 m 0 ft / 0 m
24 98 ft / 30 m 4,302 ft / 1,311 m 229.97° 244.34° Asphalt 0 ft / 0 m 0 ft / 0 m

Map

Weather


0- 5 10 15 20 25 30 35+ Temperature / ° C

Clouds and Precipitation
Forecast for 2018-05-24 00:00 UTC. Updated 4 hours ago

Ground ~20,000 ft ~40,000 ft Winds

METAR

TNCE 240255Z AUTO 07013KT //// // ///////// 25/22 Q1019 RE//

TAF

Not found

Frequencies

Unicom 118.10 MHz CTAF
Warning: Do not use this data for real-world aviation or navigation. No guarantee of current accuracy is given.